sensor_id;sensor_type;location;lat;lon;timestamp;P1;durP1;ratioP1;P2;durP2;ratioP2
10633;SDS011;5365;51.640;8.106;2022-08-19T00:02:14;11.05;;;9.15;;
10633;SDS011;5365;51.640;8.106;2022-08-19T00:04:36;9.90;;;8.90;;
10633;SDS011;5365;51.640;8.106;2022-08-19T00:06:59;9.60;;;8.38;;
10633;SDS011;5365;51.640;8.106;2022-08-19T00:09:21;9.77;;;8.70;;
10633;SDS011;5365;51.640;8.106;2022-08-19T00:11:44;10.13;;;8.95;;
10633;SDS011;5365;51.640;8.106;2022-08-19T00:14:07;9.95;;;8.65;;
10633;SDS011;5365;51.640;8.106;2022-08-19T00:16:31;11.32;;;9.00;;
10633;SDS011;5365;51.640;8.106;2022-08-19T00:18:53;10.48;;;8.70;;
10633;SDS011;5365;51.640;8.106;2022-08-19T00:21:16;11.57;;;8.80;;
10633;SDS011;5365;51.640;8.106;2022-08-19T00:23:39;10.90;;;8.68;;
10633;SDS011;5365;51.640;8.106;2022-08-19T00:26:03;11.55;;;9.20;;
10633;SDS011;5365;51.640;8.106;2022-08-19T00:28:25;11.98;;;9.75;;
10633;SDS011;5365;51.640;8.106;2022-08-19T00:30:47;15.85;;;10.07;;
10633;SDS011;5365;51.640;8.106;2022-08-19T00:33:09;11.40;;;9.15;;
10633;SDS011;5365;51.640;8.106;2022-08-19T00:35:31;10.63;;;9.48;;
10633;SDS011;5365;51.640;8.106;2022-08-19T00:37:55;12.82;;;10.27;;
10633;SDS011;5365;51.640;8.106;2022-08-19T00:40:17;12.45;;;9.82;;
10633;SDS011;5365;51.640;8.106;2022-08-19T00:42:40;11.77;;;8.75;;
10633;SDS011;5365;51.640;8.106;2022-08-19T00:45:03;11.18;;;9.98;;
10633;SDS011;5365;51.640;8.106;2022-08-19T00:47:33;11.45;;;9.45;;
10633;SDS011;5365;51.640;8.106;2022-08-19T00:49:55;11.38;;;9.77;;
10633;SDS011;5365;51.640;8.106;2022-08-19T00:52:20;10.80;;;8.73;;
10633;SDS011;5365;51.640;8.106;2022-08-19T00:54:44;11.88;;;8.95;;
10633;SDS011;5365;51.640;8.106;2022-08-19T00:57:12;11.45;;;9.57;;
10633;SDS011;5365;51.640;8.106;2022-08-19T00:59:37;10.75;;;9.63;;
10633;SDS011;5365;51.640;8.106;2022-08-19T01:02:01;10.77;;;8.98;;
10633;SDS011;5365;51.640;8.106;2022-08-19T01:04:23;11.57;;;9.77;;
10633;SDS011;5365;51.640;8.106;2022-08-19T01:06:44;14.60;;;10.60;;
10633;SDS011;5365;51.640;8.106;2022-08-19T01:09:07;13.23;;;9.82;;
10633;SDS011;5365;51.640;8.106;2022-08-19T01:11:30;11.63;;;9.70;;
10633;SDS011;5365;51.640;8.106;2022-08-19T01:13:53;12.50;;;9.45;;
10633;SDS011;5365;51.640;8.106;2022-08-19T01:16:15;9.88;;;8.88;;
10633;SDS011;5365;51.640;8.106;2022-08-19T01:18:39;14.48;;;9.77;;
10633;SDS011;5365;51.640;8.106;2022-08-19T01:21:05;13.10;;;10.23;;
10633;SDS011;5365;51.640;8.106;2022-08-19T01:23:31;9.65;;;8.63;;
10633;SDS011;5365;51.640;8.106;2022-08-19T01:26:04;10.15;;;8.68;;
10633;SDS011;5365;51.640;8.106;2022-08-19T01:28:26;10.45;;;9.05;;
10633;SDS011;5365;51.640;8.106;2022-08-19T01:30:48;10.55;;;9.38;;
10633;SDS011;5365;51.640;8.106;2022-08-19T01:33:10;12.82;;;10.23;;
10633;SDS011;5365;51.640;8.106;2022-08-19T01:35:32;13.73;;;10.63;;
10633;SDS011;5365;51.640;8.106;2022-08-19T01:37:58;12.38;;;10.45;;
10633;SDS011;5365;51.640;8.106;2022-08-19T01:40:22;16.92;;;10.77;;
10633;SDS011;5365;51.640;8.106;2022-08-19T01:42:47;13.32;;;10.30;;
10633;SDS011;5365;51.640;8.106;2022-08-19T01:45:10;12.30;;;10.68;;
10633;SDS011;5365;51.640;8.106;2022-08-19T01:47:33;14.52;;;10.07;;
10633;SDS011;5365;51.640;8.106;2022-08-19T01:49:57;12.65;;;9.70;;
10633;SDS011;5365;51.640;8.106;2022-08-19T01:52:19;13.88;;;10.88;;
10633;SDS011;5365;51.640;8.106;2022-08-19T01:54:41;12.02;;;10.20;;
10633;SDS011;5365;51.640;8.106;2022-08-19T01:57:05;13.95;;;10.82;;
10633;SDS011;5365;51.640;8.106;2022-08-19T01:59:28;12.98;;;11.38;;
10633;SDS011;5365;51.640;8.106;2022-08-19T02:01:51;17.92;;;12.65;;
10633;SDS011;5365;51.640;8.106;2022-08-19T02:04:13;14.60;;;11.90;;
10633;SDS011;5365;51.640;8.106;2022-08-19T02:06:36;18.80;;;12.25;;
10633;SDS011;5365;51.640;8.106;2022-08-19T02:08:58;16.00;;;12.07;;
10633;SDS011;5365;51.640;8.106;2022-08-19T02:11:21;15.77;;;12.73;;
10633;SDS011;5365;51.640;8.106;2022-08-19T02:13:45;16.75;;;13.43;;
10633;SDS011;5365;51.640;8.106;2022-08-19T02:16:07;16.25;;;13.40;;
10633;SDS011;5365;51.640;8.106;2022-08-19T02:18:29;19.65;;;14.32;;
10633;SDS011;5365;51.640;8.106;2022-08-19T02:20:51;22.02;;;14.45;;
10633;SDS011;5365;51.640;8.106;2022-08-19T02:23:13;21.83;;;15.23;;
10633;SDS011;5365;51.640;8.106;2022-08-19T02:25:35;19.63;;;14.27;;
10633;SDS011;5365;51.640;8.106;2022-08-19T02:27:57;17.30;;;13.85;;
10633;SDS011;5365;51.640;8.106;2022-08-19T02:30:19;20.00;;;13.98;;
10633;SDS011;5365;51.640;8.106;2022-08-19T02:32:41;20.35;;;14.55;;
10633;SDS011;5365;51.640;8.106;2022-08-19T02:35:03;19.85;;;14.45;;
10633;SDS011;5365;51.640;8.106;2022-08-19T02:37:26;21.35;;;15.27;;
10633;SDS011;5365;51.640;8.106;2022-08-19T02:40:06;19.45;;;15.05;;
10633;SDS011;5365;51.640;8.106;2022-08-19T02:42:28;20.63;;;14.52;;
10633;SDS011;5365;51.640;8.106;2022-08-19T02:44:50;24.17;;;15.25;;
10633;SDS011;5365;51.640;8.106;2022-08-19T02:47:13;21.95;;;15.38;;
10633;SDS011;5365;51.640;8.106;2022-08-19T02:49:36;20.77;;;13.68;;
10633;SDS011;5365;51.640;8.106;2022-08-19T02:51:58;22.67;;;16.00;;
10633;SDS011;5365;51.640;8.106;2022-08-19T02:54:20;18.85;;;13.75;;
10633;SDS011;5365;51.640;8.106;2022-08-19T02:56:42;20.48;;;15.57;;
10633;SDS011;5365;51.640;8.106;2022-08-19T02:59:05;18.48;;;14.23;;
10633;SDS011;5365;51.640;8.106;2022-08-19T03:01:30;19.88;;;14.82;;
10633;SDS011;5365;51.640;8.106;2022-08-19T03:03:53;17.25;;;13.77;;
10633;SDS011;5365;51.640;8.106;2022-08-19T03:06:16;18.80;;;14.02;;
10633;SDS011;5365;51.640;8.106;2022-08-19T03:08:39;21.95;;;15.18;;
10633;SDS011;5365;51.640;8.106;2022-08-19T03:11:03;17.77;;;13.88;;
10633;SDS011;5365;51.640;8.106;2022-08-19T03:13:25;19.23;;;13.43;;
10633;SDS011;5365;51.640;8.106;2022-08-19T03:15:47;19.08;;;14.18;;
10633;SDS011;5365;51.640;8.106;2022-08-19T03:18:10;16.27;;;12.73;;
10633;SDS011;5365;51.640;8.106;2022-08-19T03:20:32;16.95;;;12.98;;
10633;SDS011;5365;51.640;8.106;2022-08-19T03:22:54;16.98;;;11.85;;
10633;SDS011;5365;51.640;8.106;2022-08-19T03:25:16;19.55;;;13.65;;
10633;SDS011;5365;51.640;8.106;2022-08-19T03:27:38;17.58;;;13.95;;
10633;SDS011;5365;51.640;8.106;2022-08-19T03:30:00;19.63;;;14.40;;
10633;SDS011;5365;51.640;8.106;2022-08-19T03:32:22;24.17;;;15.52;;
10633;SDS011;5365;51.640;8.106;2022-08-19T03:34:44;21.73;;;14.27;;
10633;SDS011;5365;51.640;8.106;2022-08-19T03:37:08;18.15;;;12.80;;
10633;SDS011;5365;51.640;8.106;2022-08-19T03:39:31;15.27;;;12.15;;
10633;SDS011;5365;51.640;8.106;2022-08-19T03:41:53;16.67;;;12.98;;
10633;SDS011;5365;51.640;8.106;2022-08-19T03:44:20;15.15;;;12.50;;
10633;SDS011;5365;51.640;8.106;2022-08-19T03:46:43;17.47;;;13.20;;
10633;SDS011;5365;51.640;8.106;2022-08-19T03:49:05;17.67;;;13.50;;
10633;SDS011;5365;51.640;8.106;2022-08-19T03:51:32;19.30;;;14.00;;
10633;SDS011;5365;51.640;8.106;2022-08-19T03:53:59;17.83;;;13.35;;
10633;SDS011;5365;51.640;8.106;2022-08-19T03:56:22;19.23;;;14.30;;
10633;SDS011;5365;51.640;8.106;2022-08-19T03:58:44;19.67;;;14.57;;
10633;SDS011;5365;51.640;8.106;2022-08-19T04:01:07;19.43;;;14.07;;
10633;SDS011;5365;51.640;8.106;2022-08-19T04:03:30;19.83;;;14.23;;
10633;SDS011;5365;51.640;8.106;2022-08-19T04:05:52;19.30;;;14.80;;
10633;SDS011;5365;51.640;8.106;2022-08-19T04:08:15;22.13;;;15.40;;
10633;SDS011;5365;51.640;8.106;2022-08-19T04:10:41;21.47;;;15.47;;
10633;SDS011;5365;51.640;8.106;2022-08-19T04:13:04;21.13;;;14.25;;
10633;SDS011;5365;51.640;8.106;2022-08-19T04:15:26;20.97;;;13.87;;
10633;SDS011;5365;51.640;8.106;2022-08-19T04:17:52;22.03;;;14.83;;
10633;SDS011;5365;51.640;8.106;2022-08-19T04:20:14;20.73;;;14.50;;
10633;SDS011;5365;51.640;8.106;2022-08-19T04:22:36;20.33;;;15.40;;
10633;SDS011;5365;51.640;8.106;2022-08-19T04:24:58;20.20;;;14.37;;
10633;SDS011;5365;51.640;8.106;2022-08-19T04:27:20;22.40;;;15.53;;
10633;SDS011;5365;51.640;8.106;2022-08-19T04:29:41;21.53;;;15.27;;
10633;SDS011;5365;51.640;8.106;2022-08-19T04:32:03;23.05;;;15.95;;
10633;SDS011;5365;51.640;8.106;2022-08-19T04:34:27;22.67;;;15.97;;
10633;SDS011;5365;51.640;8.106;2022-08-19T04:36:50;25.63;;;16.90;;
10633;SDS011;5365;51.640;8.106;2022-08-19T04:39:15;27.30;;;17.40;;
10633;SDS011;5365;51.640;8.106;2022-08-19T04:41:38;24.42;;;16.92;;
10633;SDS011;5365;51.640;8.106;2022-08-19T04:44:18;27.05;;;17.60;;
10633;SDS011;5365;51.640;8.106;2022-08-19T04:46:40;28.30;;;17.20;;
10633;SDS011;5365;51.640;8.106;2022-08-19T04:49:03;27.97;;;17.40;;
10633;SDS011;5365;51.640;8.106;2022-08-19T04:51:26;28.58;;;17.50;;
10633;SDS011;5365;51.640;8.106;2022-08-19T04:53:48;25.37;;;16.63;;
10633;SDS011;5365;51.640;8.106;2022-08-19T04:56:12;26.87;;;16.60;;
10633;SDS011;5365;51.640;8.106;2022-08-19T04:58:35;22.53;;;15.00;;
10633;SDS011;5365;51.640;8.106;2022-08-19T05:00:58;26.03;;;15.23;;
10633;SDS011;5365;51.640;8.106;2022-08-19T05:03:21;23.63;;;15.57;;
10633;SDS011;5365;51.640;8.106;2022-08-19T05:05:44;25.30;;;16.25;;
10633;SDS011;5365;51.640;8.106;2022-08-19T05:08:07;22.38;;;15.57;;
10633;SDS011;5365;51.640;8.106;2022-08-19T05:10:29;30.83;;;17.45;;
10633;SDS011;5365;51.640;8.106;2022-08-19T05:12:51;29.42;;;17.60;;
10633;SDS011;5365;51.640;8.106;2022-08-19T05:15:13;27.42;;;17.17;;
10633;SDS011;5365;51.640;8.106;2022-08-19T05:17:35;25.30;;;16.67;;
10633;SDS011;5365;51.640;8.106;2022-08-19T05:19:59;29.00;;;16.55;;
10633;SDS011;5365;51.640;8.106;2022-08-19T05:22:40;25.25;;;16.15;;
10633;SDS011;5365;51.640;8.106;2022-08-19T05:25:11;22.85;;;15.43;;
10633;SDS011;5365;51.640;8.106;2022-08-19T05:27:35;27.60;;;17.30;;
10633;SDS011;5365;51.640;8.106;2022-08-19T05:29:57;33.50;;;18.48;;
10633;SDS011;5365;51.640;8.106;2022-08-19T05:32:18;30.58;;;18.92;;
10633;SDS011;5365;51.640;8.106;2022-08-19T05:34:40;32.55;;;19.83;;
10633;SDS011;5365;51.640;8.106;2022-08-19T05:37:02;35.67;;;21.52;;
10633;SDS011;5365;51.640;8.106;2022-08-19T05:39:26;30.42;;;19.92;;
10633;SDS011;5365;51.640;8.106;2022-08-19T05:41:53;34.70;;;20.63;;
10633;SDS011;5365;51.640;8.106;2022-08-19T05:44:19;32.47;;;20.05;;
10633;SDS011;5365;51.640;8.106;2022-08-19T05:46:43;31.75;;;19.40;;
10633;SDS011;5365;51.640;8.106;2022-08-19T05:49:08;31.42;;;19.67;;
10633;SDS011;5365;51.640;8.106;2022-08-19T05:51:30;31.25;;;20.10;;
10633;SDS011;5365;51.640;8.106;2022-08-19T05:53:51;35.28;;;21.65;;
10633;SDS011;5365;51.640;8.106;2022-08-19T05:56:14;39.22;;;23.10;;
10633;SDS011;5365;51.640;8.106;2022-08-19T05:58:37;34.88;;;20.92;;
10633;SDS011;5365;51.640;8.106;2022-08-19T06:00:59;33.83;;;19.55;;
10633;SDS011;5365;51.640;8.106;2022-08-19T06:03:27;36.97;;;22.33;;
10633;SDS011;5365;51.640;8.106;2022-08-19T06:05:49;35.25;;;22.42;;
10633;SDS011;5365;51.640;8.106;2022-08-19T06:08:11;44.78;;;24.75;;
10633;SDS011;5365;51.640;8.106;2022-08-19T06:10:32;40.03;;;23.05;;
10633;SDS011;5365;51.640;8.106;2022-08-19T06:12:54;35.95;;;22.08;;
10633;SDS011;5365;51.640;8.106;2022-08-19T06:15:17;39.33;;;22.73;;
10633;SDS011;5365;51.640;8.106;2022-08-19T06:17:39;37.10;;;22.88;;
10633;SDS011;5365;51.640;8.106;2022-08-19T06:20:04;40.08;;;23.58;;
10633;SDS011;5365;51.640;8.106;2022-08-19T06:22:27;39.47;;;22.67;;
10633;SDS011;5365;51.640;8.106;2022-08-19T06:24:49;37.88;;;23.60;;
10633;SDS011;5365;51.640;8.106;2022-08-19T06:27:14;38.05;;;23.67;;
10633;SDS011;5365;51.640;8.106;2022-08-19T06:29:37;35.35;;;23.08;;
10633;SDS011;5365;51.640;8.106;2022-08-19T06:31:59;34.83;;;21.92;;
10633;SDS011;5365;51.640;8.106;2022-08-19T06:34:23;39.05;;;23.58;;
10633;SDS011;5365;51.640;8.106;2022-08-19T06:36:46;37.60;;;23.42;;
10633;SDS011;5365;51.640;8.106;2022-08-19T06:39:11;39.10;;;24.08;;
10633;SDS011;5365;51.640;8.106;2022-08-19T06:41:41;33.10;;;21.75;;
10633;SDS011;5365;51.640;8.106;2022-08-19T06:44:11;40.03;;;24.83;;
10633;SDS011;5365;51.640;8.106;2022-08-19T06:46:33;39.40;;;23.08;;
10633;SDS011;5365;51.640;8.106;2022-08-19T06:48:55;39.70;;;23.88;;
10633;SDS011;5365;51.640;8.106;2022-08-19T06:51:17;39.60;;;24.48;;
10633;SDS011;5365;51.640;8.106;2022-08-19T06:53:40;40.03;;;24.85;;
10633;SDS011;5365;51.640;8.106;2022-08-19T06:56:02;36.97;;;23.98;;
10633;SDS011;5365;51.640;8.106;2022-08-19T06:58:24;36.38;;;23.20;;
10633;SDS011;5365;51.640;8.106;2022-08-19T07:00:46;38.25;;;23.48;;
10633;SDS011;5365;51.640;8.106;2022-08-19T07:03:07;40.28;;;24.25;;
10633;SDS011;5365;51.640;8.106;2022-08-19T07:05:29;39.75;;;23.80;;
10633;SDS011;5365;51.640;8.106;2022-08-19T07:07:51;36.28;;;23.67;;
10633;SDS011;5365;51.640;8.106;2022-08-19T07:10:13;35.55;;;21.95;;
10633;SDS011;5365;51.640;8.106;2022-08-19T07:12:35;34.90;;;23.63;;
10633;SDS011;5365;51.640;8.106;2022-08-19T07:14:57;37.25;;;22.35;;
10633;SDS011;5365;51.640;8.106;2022-08-19T07:17:19;32.10;;;21.63;;
10633;SDS011;5365;51.640;8.106;2022-08-19T07:19:41;36.28;;;22.67;;
10633;SDS011;5365;51.640;8.106;2022-08-19T07:22:05;30.00;;;20.90;;
10633;SDS011;5365;51.640;8.106;2022-08-19T07:24:28;29.85;;;21.58;;
10633;SDS011;5365;51.640;8.106;2022-08-19T07:26:52;32.40;;;21.35;;
10633;SDS011;5365;51.640;8.106;2022-08-19T07:29:15;30.70;;;19.58;;
10633;SDS011;5365;51.640;8.106;2022-08-19T07:31:37;29.60;;;20.70;;
10633;SDS011;5365;51.640;8.106;2022-08-19T07:34:00;28.08;;;20.02;;
10633;SDS011;5365;51.640;8.106;2022-08-19T07:36:23;27.30;;;19.45;;
10633;SDS011;5365;51.640;8.106;2022-08-19T07:38:50;24.95;;;19.08;;
10633;SDS011;5365;51.640;8.106;2022-08-19T07:41:17;26.45;;;17.80;;
10633;SDS011;5365;51.640;8.106;2022-08-19T07:43:41;26.48;;;18.00;;
10633;SDS011;5365;51.640;8.106;2022-08-19T07:46:05;23.50;;;16.17;;
10633;SDS011;5365;51.640;8.106;2022-08-19T07:48:32;22.50;;;16.30;;
10633;SDS011;5365;51.640;8.106;2022-08-19T07:50:55;22.02;;;16.83;;
10633;SDS011;5365;51.640;8.106;2022-08-19T07:53:19;21.00;;;16.80;;
10633;SDS011;5365;51.640;8.106;2022-08-19T07:55:42;20.05;;;15.48;;
10633;SDS011;5365;51.640;8.106;2022-08-19T07:58:04;18.25;;;15.20;;
10633;SDS011;5365;51.640;8.106;2022-08-19T08:00:26;19.85;;;15.02;;
10633;SDS011;5365;51.640;8.106;2022-08-19T08:02:48;19.35;;;15.02;;
10633;SDS011;5365;51.640;8.106;2022-08-19T08:05:10;17.42;;;14.48;;
10633;SDS011;5365;51.640;8.106;2022-08-19T08:07:50;18.90;;;14.30;;
10633;SDS011;5365;51.640;8.106;2022-08-19T08:10:31;15.93;;;12.82;;
10633;SDS011;5365;51.640;8.106;2022-08-19T08:12:53;16.15;;;12.57;;
10633;SDS011;5365;51.640;8.106;2022-08-19T08:15:16;17.40;;;13.40;;
10633;SDS011;5365;51.640;8.106;2022-08-19T08:17:39;15.88;;;12.30;;
10633;SDS011;5365;51.640;8.106;2022-08-19T08:20:03;15.02;;;9.80;;
10633;SDS011;5365;51.640;8.106;2022-08-19T08:22:28;11.70;;;9.73;;
10633;SDS011;5365;51.640;8.106;2022-08-19T08:25:10;12.65;;;11.15;;
10633;SDS011;5365;51.640;8.106;2022-08-19T08:27:38;11.98;;;10.55;;
10633;SDS011;5365;51.640;8.106;2022-08-19T08:30:03;11.57;;;9.73;;
10633;SDS011;5365;51.640;8.106;2022-08-19T08:32:27;16.25;;;12.77;;
10633;SDS011;5365;51.640;8.106;2022-08-19T08:34:49;14.45;;;11.15;;
10633;SDS011;5365;51.640;8.106;2022-08-19T08:37:11;10.82;;;9.73;;
10633;SDS011;5365;51.640;8.106;2022-08-19T08:39:33;9.88;;;8.60;;
10633;SDS011;5365;51.640;8.106;2022-08-19T08:47:13;9.57;;;7.18;;
10633;SDS011;5365;51.640;8.106;2022-08-19T08:49:45;9.15;;;7.07;;
10633;SDS011;5365;51.640;8.106;2022-08-19T08:52:16;8.75;;;7.85;;
10633;SDS011;5365;51.640;8.106;2022-08-19T08:54:46;13.02;;;9.82;;
10633;SDS011;5365;51.640;8.106;2022-08-19T08:57:18;9.98;;;8.02;;
10633;SDS011;5365;51.640;8.106;2022-08-19T08:59:42;10.65;;;8.73;;
10633;SDS011;5365;51.640;8.106;2022-08-19T09:02:05;12.38;;;9.10;;
10633;SDS011;5365;51.640;8.106;2022-08-19T09:04:27;9.63;;;8.73;;
10633;SDS011;5365;51.640;8.106;2022-08-19T09:09:43;10.82;;;8.88;;
10633;SDS011;5365;51.640;8.106;2022-08-19T09:12:14;11.68;;;9.45;;
10633;SDS011;5365;51.640;8.106;2022-08-19T09:14:55;10.45;;;9.35;;
10633;SDS011;5365;51.640;8.106;2022-08-19T09:17:21;9.93;;;8.18;;
10633;SDS011;5365;51.640;8.106;2022-08-19T09:20:00;11.38;;;9.82;;
10633;SDS011;5365;51.640;8.106;2022-08-19T09:22:30;10.25;;;8.88;;
10633;SDS011;5365;51.640;8.106;2022-08-19T09:24:53;8.55;;;7.75;;
10633;SDS011;5365;51.640;8.106;2022-08-19T09:27:15;10.50;;;9.48;;
10633;SDS011;5365;51.640;8.106;2022-08-19T09:29:37;11.60;;;9.48;;
10633;SDS011;5365;51.640;8.106;2022-08-19T09:31:59;9.43;;;8.52;;
10633;SDS011;5365;51.640;8.106;2022-08-19T09:34:21;11.90;;;10.38;;
10633;SDS011;5365;51.640;8.106;2022-08-19T09:36:43;11.07;;;9.98;;
10633;SDS011;5365;51.640;8.106;2022-08-19T09:39:05;9.43;;;8.52;;
10633;SDS011;5365;51.640;8.106;2022-08-19T09:41:27;9.68;;;8.85;;
10633;SDS011;5365;51.640;8.106;2022-08-19T09:43:50;10.63;;;9.60;;
10633;SDS011;5365;51.640;8.106;2022-08-19T09:46:17;11.35;;;10.15;;
10633;SDS011;5365;51.640;8.106;2022-08-19T09:48:40;9.88;;;8.98;;
10633;SDS011;5365;51.640;8.106;2022-08-19T09:51:06;11.85;;;10.68;;
10633;SDS011;5365;51.640;8.106;2022-08-19T09:53:29;10.30;;;9.38;;
10633;SDS011;5365;51.640;8.106;2022-08-19T09:55:51;11.82;;;10.73;;
10633;SDS011;5365;51.640;8.106;2022-08-19T09:58:14;10.88;;;9.95;;
10633;SDS011;5365;51.640;8.106;2022-08-19T10:00:37;10.02;;;9.13;;
10633;SDS011;5365;51.640;8.106;2022-08-19T10:02:59;9.40;;;8.60;;
10633;SDS011;5365;51.640;8.106;2022-08-19T10:05:21;9.15;;;8.45;;
10633;SDS011;5365;51.640;8.106;2022-08-19T10:08:02;9.50;;;8.70;;
10633;SDS011;5365;51.640;8.106;2022-08-19T10:10:23;10.00;;;9.10;;
10633;SDS011;5365;51.640;8.106;2022-08-19T10:12:45;9.82;;;8.93;;
10633;SDS011;5365;51.640;8.106;2022-08-19T10:15:08;9.45;;;8.65;;
10633;SDS011;5365;51.640;8.106;2022-08-19T10:17:31;8.07;;;7.35;;
10633;SDS011;5365;51.640;8.106;2022-08-19T10:19:54;9.57;;;8.65;;
10633;SDS011;5365;51.640;8.106;2022-08-19T10:22:17;8.73;;;8.02;;
10633;SDS011;5365;51.640;8.106;2022-08-19T10:24:40;9.07;;;8.38;;
10633;SDS011;5365;51.640;8.106;2022-08-19T10:27:02;10.20;;;9.15;;
10633;SDS011;5365;51.640;8.106;2022-08-19T10:29:27;10.30;;;9.38;;
10633;SDS011;5365;51.640;8.106;2022-08-19T10:31:53;9.60;;;8.65;;
10633;SDS011;5365;51.640;8.106;2022-08-19T10:34:15;12.50;;;11.20;;
10633;SDS011;5365;51.640;8.106;2022-08-19T10:36:47;10.32;;;9.43;;
10633;SDS011;5365;51.640;8.106;2022-08-19T10:39:09;11.25;;;10.30;;
10633;SDS011;5365;51.640;8.106;2022-08-19T10:41:35;12.20;;;11.00;;
10633;SDS011;5365;51.640;8.106;2022-08-19T10:43:59;8.35;;;7.72;;
10633;SDS011;5365;51.640;8.106;2022-08-19T10:46:32;6.63;;;6.13;;
10633;SDS011;5365;51.640;8.106;2022-08-19T10:48:55;5.82;;;5.43;;
10633;SDS011;5365;51.640;8.106;2022-08-19T10:51:18;4.50;;;4.13;;
10633;SDS011;5365;51.640;8.106;2022-08-19T10:53:58;4.50;;;4.20;;
10633;SDS011;5365;51.640;8.106;2022-08-19T10:56:20;4.22;;;3.92;;
10633;SDS011;5365;51.640;8.106;2022-08-19T10:59:01;4.30;;;4.03;;
10633;SDS011;5365;51.640;8.106;2022-08-19T11:01:25;4.13;;;3.78;;
10633;SDS011;5365;51.640;8.106;2022-08-19T11:03:48;4.30;;;3.90;;
10633;SDS011;5365;51.640;8.106;2022-08-19T11:06:11;3.90;;;3.60;;
10633;SDS011;5365;51.640;8.106;2022-08-19T11:08:33;3.85;;;3.60;;
10633;SDS011;5365;51.640;8.106;2022-08-19T11:10:59;4.40;;;4.10;;
10633;SDS011;5365;51.640;8.106;2022-08-19T11:13:22;4.13;;;3.92;;
10633;SDS011;5365;51.640;8.106;2022-08-19T11:15:44;4.03;;;3.83;;
10633;SDS011;5365;51.640;8.106;2022-08-19T11:18:08;3.97;;;3.78;;
10633;SDS011;5365;51.640;8.106;2022-08-19T11:20:30;4.00;;;3.80;;
10633;SDS011;5365;51.640;8.106;2022-08-19T11:22:52;4.20;;;3.90;;
10633;SDS011;5365;51.640;8.106;2022-08-19T11:25:17;4.13;;;3.83;;
10633;SDS011;5365;51.640;8.106;2022-08-19T11:27:40;4.38;;;4.07;;
10633;SDS011;5365;51.640;8.106;2022-08-19T11:30:06;4.03;;;3.72;;
10633;SDS011;5365;51.640;8.106;2022-08-19T11:32:29;3.95;;;3.65;;
10633;SDS011;5365;51.640;8.106;2022-08-19T11:34:50;4.07;;;3.80;;
10633;SDS011;5365;51.640;8.106;2022-08-19T11:37:12;4.20;;;3.90;;
10633;SDS011;5365;51.640;8.106;2022-08-19T11:39:34;4.55;;;4.25;;
10633;SDS011;5365;51.640;8.106;2022-08-19T11:41:58;3.92;;;3.72;;
10633;SDS011;5365;51.640;8.106;2022-08-19T11:44:20;4.40;;;4.10;;
10633;SDS011;5365;51.640;8.106;2022-08-19T11:46:42;3.80;;;3.60;;
10633;SDS011;5365;51.640;8.106;2022-08-19T11:49:07;3.70;;;3.50;;
10633;SDS011;5365;51.640;8.106;2022-08-19T11:51:33;4.00;;;3.80;;
10633;SDS011;5365;51.640;8.106;2022-08-19T11:53:56;4.38;;;4.18;;
10633;SDS011;5365;51.640;8.106;2022-08-19T11:56:19;4.30;;;4.07;;
10633;SDS011;5365;51.640;8.106;2022-08-19T11:58:41;4.55;;;4.30;;
10633;SDS011;5365;51.640;8.106;2022-08-19T12:01:07;4.38;;;4.07;;
10633;SDS011;5365;51.640;8.106;2022-08-19T12:03:30;4.22;;;3.92;;
10633;SDS011;5365;51.640;8.106;2022-08-19T12:05:52;5.72;;;5.00;;
10633;SDS011;5365;51.640;8.106;2022-08-19T12:08:13;4.72;;;4.43;;
10633;SDS011;5365;51.640;8.106;2022-08-19T12:10:36;4.47;;;4.18;;
10633;SDS011;5365;51.640;8.106;2022-08-19T12:12:58;4.97;;;4.63;;
10633;SDS011;5365;51.640;8.106;2022-08-19T12:15:20;4.63;;;4.28;;
10633;SDS011;5365;51.640;8.106;2022-08-19T12:17:42;4.30;;;4.00;;
10633;SDS011;5365;51.640;8.106;2022-08-19T12:20:04;4.28;;;4.00;;
10633;SDS011;5365;51.640;8.106;2022-08-19T12:22:28;4.88;;;4.57;;
10633;SDS011;5365;51.640;8.106;2022-08-19T12:24:50;4.85;;;4.55;;
10633;SDS011;5365;51.640;8.106;2022-08-19T12:27:14;5.30;;;5.00;;
10633;SDS011;5365;51.640;8.106;2022-08-19T12:29:36;5.43;;;5.13;;
10633;SDS011;5365;51.640;8.106;2022-08-19T12:31:58;5.15;;;4.70;;
10633;SDS011;5365;51.640;8.106;2022-08-19T12:34:22;5.80;;;5.40;;
10633;SDS011;5365;51.640;8.106;2022-08-19T12:36:44;5.65;;;5.25;;
10633;SDS011;5365;51.640;8.106;2022-08-19T12:39:06;5.57;;;5.22;;
10633;SDS011;5365;51.640;8.106;2022-08-19T12:41:29;5.28;;;4.90;;
10633;SDS011;5365;51.640;8.106;2022-08-19T12:43:51;4.80;;;4.40;;
10633;SDS011;5365;51.640;8.106;2022-08-19T12:46:13;4.68;;;4.28;;
10633;SDS011;5365;51.640;8.106;2022-08-19T12:48:35;4.28;;;4.03;;
10633;SDS011;5365;51.640;8.106;2022-08-19T12:50:58;4.95;;;4.25;;
10633;SDS011;5365;51.640;8.106;2022-08-19T12:53:20;4.35;;;3.97;;
10633;SDS011;5365;51.640;8.106;2022-08-19T12:55:42;4.22;;;3.63;;
10633;SDS011;5365;51.640;8.106;2022-08-19T12:58:04;3.70;;;3.50;;
10633;SDS011;5365;51.640;8.106;2022-08-19T13:00:27;3.78;;;3.50;;
10633;SDS011;5365;51.640;8.106;2022-08-19T13:02:49;4.55;;;4.15;;
10633;SDS011;5365;51.640;8.106;2022-08-19T13:05:14;4.32;;;4.03;;
10633;SDS011;5365;51.640;8.106;2022-08-19T13:07:39;4.47;;;4.23;;
10633;SDS011;5365;51.640;8.106;2022-08-19T13:10:01;4.28;;;4.00;;
10633;SDS011;5365;51.640;8.106;2022-08-19T13:12:23;3.80;;;3.60;;
10633;SDS011;5365;51.640;8.106;2022-08-19T13:14:45;3.95;;;3.65;;
10633;SDS011;5365;51.640;8.106;2022-08-19T13:17:11;6.25;;;4.03;;
10633;SDS011;5365;51.640;8.106;2022-08-19T13:19:35;3.97;;;3.78;;
10633;SDS011;5365;51.640;8.106;2022-08-19T13:21:58;4.07;;;3.88;;
10633;SDS011;5365;51.640;8.106;2022-08-19T13:24:20;4.30;;;4.00;;
10633;SDS011;5365;51.640;8.106;2022-08-19T13:26:42;4.90;;;4.50;;
10633;SDS011;5365;51.640;8.106;2022-08-19T13:29:03;3.85;;;3.55;;
10633;SDS011;5365;51.640;8.106;2022-08-19T13:31:44;4.40;;;4.07;;
10633;SDS011;5365;51.640;8.106;2022-08-19T13:34:26;4.28;;;4.03;;
10633;SDS011;5365;51.640;8.106;2022-08-19T13:36:54;4.00;;;3.80;;
10633;SDS011;5365;51.640;8.106;2022-08-19T13:39:16;5.18;;;4.32;;
10633;SDS011;5365;51.640;8.106;2022-08-19T13:41:42;4.50;;;4.20;;
10633;SDS011;5365;51.640;8.106;2022-08-19T13:44:09;4.80;;;4.40;;
10633;SDS011;5365;51.640;8.106;2022-08-19T13:46:30;5.28;;;4.82;;
10633;SDS011;5365;51.640;8.106;2022-08-19T13:48:52;5.93;;;5.43;;
10633;SDS011;5365;51.640;8.106;2022-08-19T13:51:15;5.43;;;5.10;;
10633;SDS011;5365;51.640;8.106;2022-08-19T13:53:39;5.70;;;5.30;;
10633;SDS011;5365;51.640;8.106;2022-08-19T13:56:05;6.55;;;4.70;;
10633;SDS011;5365;51.640;8.106;2022-08-19T13:58:28;5.35;;;5.03;;
10633;SDS011;5365;51.640;8.106;2022-08-19T14:00:53;5.70;;;5.20;;
10633;SDS011;5365;51.640;8.106;2022-08-19T14:03:15;5.53;;;5.13;;
10633;SDS011;5365;51.640;8.106;2022-08-19T14:05:37;5.43;;;5.10;;
10633;SDS011;5365;51.640;8.106;2022-08-19T14:07:59;5.80;;;5.30;;
10633;SDS011;5365;51.640;8.106;2022-08-19T14:10:22;6.20;;;5.60;;
10633;SDS011;5365;51.640;8.106;2022-08-19T14:12:44;5.68;;;5.35;;
10633;SDS011;5365;51.640;8.106;2022-08-19T14:15:08;5.35;;;4.93;;
10633;SDS011;5365;51.640;8.106;2022-08-19T14:17:31;5.53;;;5.13;;
10633;SDS011;5365;51.640;8.106;2022-08-19T14:19:57;6.13;;;5.60;;
10633;SDS011;5365;51.640;8.106;2022-08-19T14:22:19;6.50;;;5.80;;
10633;SDS011;5365;51.640;8.106;2022-08-19T14:24:42;5.60;;;5.20;;
10633;SDS011;5365;51.640;8.106;2022-08-19T14:27:04;6.18;;;5.57;;
10633;SDS011;5365;51.640;8.106;2022-08-19T14:29:25;5.20;;;4.90;;
10633;SDS011;5365;51.640;8.106;2022-08-19T14:31:50;5.38;;;4.97;;
10633;SDS011;5365;51.640;8.106;2022-08-19T14:34:12;5.70;;;5.20;;